Terminal Aerodrome Forecast
Issued by NWS

Home | Current Version | Previous Version | Graphics & Text | Print | Product List | Glossary On
Versions: 1 2 3 4 5 6 7 8 9 10 11 12 13
556
FTUS45 KGGW 182100 AAA
TAFSDY
TAF AMD
KSDY 182100Z 1821/1918 25014G24KT P6SM FEW200
     FM190000 25008KT P6SM FEW200
     FM190500 19006KT P6SM BKN150
     FM191700 20010KT P6SM FEW200=

USA.gov is the U.S. government's official web portal to all federal, state and local government web resources and services.